Time;durP1;ratioP1;P1;durP2;ratioP2;P2;SDS_P1;SDS_P2;PMS_P1;PMS_P2;Temp;Humidity;BMP_temperature;BMP_pressure;BME280_temperature;BME280_humidity;BME280_pressure;Samples;Min_cycle;Max_cycle;Signal;HPM_P1;HPM_P2
2023/12/09 00:00:58;;;;;;;0.50;0.50;;;5.10;99.90;;;;;;5051099;28;20206;-59
2023/12/09 00:03:24;;;;;;;0.70;0.70;;;5.10;99.90;;;;;;5051200;28;20669;-59
2023/12/09 00:05:49;;;;;;;0.70;0.70;;;5.00;99.90;;;;;;5051347;28;20253;-59
2023/12/09 00:08:15;;;;;;;1.17;1.17;;;5.00;99.90;;;;;;5051236;28;20182;-59
2023/12/09 00:10:40;;;;;;;0.30;0.30;;;5.10;99.90;;;;;;5053703;28;20234;-59
2023/12/09 00:13:06;;;;;;;0.50;0.50;;;5.10;99.90;;;;;;5066386;28;20174;-59
2023/12/09 00:15:32;;;;;;;0.70;0.70;;;5.10;99.90;;;;;;5075504;28;20683;-59
2023/12/09 00:17:57;;;;;;;0.50;0.50;;;5.20;99.90;;;;;;5075068;28;20175;-59
2023/12/09 00:20:23;;;;;;;0.53;0.50;;;5.10;99.90;;;;;;5074029;28;20244;-59
2023/12/09 00:22:48;;;;;;;0.73;0.73;;;5.10;99.90;;;;;;5059568;28;20641;-58
2023/12/09 00:25:14;;;;;;;0.97;0.87;;;5.10;99.90;;;;;;5045767;28;20213;-59
2023/12/09 00:27:40;;;;;;;1.98;0.90;;;5.10;99.90;;;;;;5044013;28;20548;-59
2023/12/09 00:30:07;;;;;;;1.33;1.23;;;5.20;99.90;;;;;;5043918;28;20191;-59
2023/12/09 00:32:33;;;;;;;1.33;1.23;;;5.20;99.90;;;;;;5044318;28;20201;-59
2023/12/09 00:35:00;;;;;;;0.40;0.40;;;5.20;99.90;;;;;;5046816;28;20210;-59
2023/12/09 00:37:26;;;;;;;0.85;0.85;;;5.20;99.90;;;;;;5047524;28;20182;-59
2023/12/09 00:39:52;;;;;;;0.50;0.45;;;5.20;99.90;;;;;;5039744;28;20580;-59
2023/12/09 00:42:18;;;;;;;0.73;0.73;;;5.20;99.90;;;;;;5041051;28;20176;-59
2023/12/09 00:44:43;;;;;;;0.60;0.60;;;5.20;99.90;;;;;;5041055;28;20184;-58
2023/12/09 00:47:09;;;;;;;1.90;0.60;;;5.20;99.90;;;;;;5047017;28;20206;-59
2023/12/09 00:49:35;;;;;;;1.45;1.25;;;5.20;99.90;;;;;;5039636;28;20251;-59
2023/12/09 00:52:01;;;;;;;0.83;0.83;;;5.20;99.90;;;;;;5042291;28;20221;-58
2023/12/09 00:54:27;;;;;;;1.37;0.87;;;5.20;99.90;;;;;;5048483;28;20170;-58
2023/12/09 00:56:54;;;;;;;0.70;0.70;;;5.20;99.90;;;;;;5046946;28;20166;-59
2023/12/09 00:59:20;;;;;;;0.60;0.60;;;5.20;99.90;;;;;;5044675;28;20241;-59
2023/12/09 01:01:46;;;;;;;0.40;0.40;;;5.20;99.90;;;;;;5042501;28;20210;-59
2023/12/09 01:04:13;;;;;;;10.20;0.97;;;5.20;99.90;;;;;;5044333;28;20418;-58
2023/12/09 01:06:39;;;;;;;0.40;0.40;;;5.20;99.90;;;;;;5028464;28;20419;-59
2023/12/09 01:09:06;;;;;;;0.50;0.50;;;5.20;99.90;;;;;;5043379;28;20209;-58
2023/12/09 01:11:32;;;;;;;2.45;1.88;;;5.20;99.90;;;;;;5043236;28;20245;-59
2023/12/09 01:13:59;;;;;;;0.70;0.63;;;5.10;99.90;;;;;;5041875;28;20529;-58
2023/12/09 01:16:25;;;;;;;0.63;0.63;;;5.10;99.90;;;;;;5044589;28;20158;-58
2023/12/09 01:18:51;;;;;;;0.50;0.50;;;5.10;99.90;;;;;;5041767;28;20281;-58
2023/12/09 01:21:16;;;;;;;0.60;0.60;;;5.00;99.90;;;;;;5043562;28;20254;-58
2023/12/09 01:23:42;;;;;;;0.47;0.47;;;5.10;99.90;;;;;;5044140;28;20224;-59
2023/12/09 01:26:08;;;;;;;0.40;0.40;;;5.10;99.90;;;;;;5042671;28;20172;-59
2023/12/09 01:28:34;;;;;;;2.10;1.90;;;5.00;99.90;;;;;;5043574;28;20716;-59
2023/12/09 01:30:59;;;;;;;0.80;0.80;;;5.10;99.90;;;;;;5043670;28;20805;-59
2023/12/09 01:33:25;;;;;;;0.50;0.50;;;5.10;99.90;;;;;;5041240;28;20194;-59
2023/12/09 01:35:51;;;;;;;2.20;2.00;;;5.20;99.90;;;;;;5048010;28;20186;-60
2023/12/09 01:38:17;;;;;;;0.83;0.83;;;5.20;99.90;;;;;;5042261;28;20458;-59
2023/12/09 01:40:43;;;;;;;1.65;1.40;;;5.20;99.90;;;;;;5042106;28;20174;-59
2023/12/09 01:43:10;;;;;;;0.60;0.60;;;5.10;99.90;;;;;;5043733;28;20312;-59
2023/12/09 01:45:35;;;;;;;8.13;1.10;;;5.10;99.90;;;;;;5042111;28;20186;-59
2023/12/09 01:48:03;;;;;;;1.47;1.43;;;5.20;99.90;;;;;;5044167;28;20202;-59
2023/12/09 01:50:30;;;;;;;1.00;0.90;;;5.20;99.90;;;;;;5041888;28;20199;-59
2023/12/09 01:52:57;;;;;;;0.50;0.50;;;5.10;99.90;;;;;;5040380;28;20171;-59
2023/12/09 01:55:24;;;;;;;0.60;0.60;;;5.10;99.90;;;;;;5042883;28;20175;-58
2023/12/09 01:57:51;;;;;;;1.02;0.93;;;5.10;99.90;;;;;;5043594;28;20210;-59
2023/12/09 02:00:18;;;;;;;0.40;0.40;;;5.20;99.90;;;;;;5052796;28;20189;-59
2023/12/09 02:02:45;;;;;;;0.65;0.65;;;5.10;99.90;;;;;;5052775;28;20186;-58
2023/12/09 02:05:11;;;;;;;0.40;0.40;;;5.10;99.90;;;;;;5053432;28;20175;-59
2023/12/09 02:07:37;;;;;;;0.85;0.68;;;5.10;99.90;;;;;;5052055;28;20216;-59
2023/12/09 02:10:03;;;;;;;0.70;0.70;;;5.00;99.90;;;;;;5052972;28;20190;-59
2023/12/09 02:13:05;;;;;;;0.80;0.75;;;5.00;99.90;;;;;;5053487;28;20400;-59
2023/12/09 02:15:38;;;;;;;1.80;1.63;;;5.10;99.90;;;;;;5053056;28;20629;-59
2023/12/09 02:18:05;;;;;;;0.68;0.68;;;5.10;99.90;;;;;;5052920;28;20191;-59
2023/12/09 02:20:31;;;;;;;0.50;0.50;;;5.00;99.90;;;;;;5052657;28;20568;-59
2023/12/09 02:23:10;;;;;;;1.65;1.40;;;5.00;99.90;;;;;;5052856;28;20187;-59
2023/12/09 02:25:37;;;;;;;0.50;0.50;;;5.10;99.90;;;;;;5052858;28;20251;-59
2023/12/09 02:28:10;;;;;;;0.60;0.60;;;5.10;99.90;;;;;;5052785;28;20201;-59
2023/12/09 02:30:59;;;;;;;0.40;0.40;;;5.30;99.90;;;;;;5052268;28;20201;-59
2023/12/09 02:33:25;;;;;;;0.50;0.50;;;5.30;99.90;;;;;;5051418;28;20619;-59
2023/12/09 02:35:53;;;;;;;0.40;0.40;;;5.30;99.90;;;;;;5052416;28;20200;-59
2023/12/09 02:38:19;;;;;;;0.50;0.40;;;5.10;99.90;;;;;;5052529;28;20183;-58
2023/12/09 02:40:48;;;;;;;0.65;0.65;;;5.10;99.90;;;;;;5052175;28;20228;-58
2023/12/09 02:43:14;;;;;;;27.60;1.40;;;5.20;99.90;;;;;;5052497;28;20521;-59
2023/12/09 02:45:40;;;;;;;0.87;0.87;;;5.10;99.90;;;;;;5052347;28;20183;-58
2023/12/09 02:48:06;;;;;;;0.40;0.40;;;5.10;99.90;;;;;;5052216;28;21015;-59
2023/12/09 02:50:31;;;;;;;0.70;0.70;;;5.10;99.90;;;;;;5051863;28;20457;-59
2023/12/09 02:52:57;;;;;;;1.77;1.67;;;5.00;99.90;;;;;;5052294;28;20644;-59
2023/12/09 02:55:23;;;;;;;0.53;0.50;;;5.00;99.90;;;;;;5052232;28;20218;-59
2023/12/09 02:57:48;;;;;;;0.60;0.60;;;5.00;99.90;;;;;;5052155;28;20162;-59
2023/12/09 03:00:14;;;;;;;0.53;0.50;;;4.90;99.90;;;;;;5051760;28;20173;-58
2023/12/09 03:02:40;;;;;;;0.43;0.43;;;4.90;99.90;;;;;;5051926;28;20556;-58
2023/12/09 03:05:06;;;;;;;1.60;1.30;;;4.90;99.90;;;;;;5052090;28;20920;-59
2023/12/09 03:07:32;;;;;;;0.87;0.87;;;4.90;99.90;;;;;;5052076;28;20421;-59
2023/12/09 03:09:57;;;;;;;1.10;1.10;;;5.00;99.90;;;;;;5051636;28;20488;-58
2023/12/09 03:12:23;;;;;;;0.80;0.80;;;5.00;99.90;;;;;;5051795;28;20906;-59
2023/12/09 03:14:49;;;;;;;0.50;0.50;;;5.00;99.90;;;;;;5051885;28;20283;-58
2023/12/09 03:17:14;;;;;;;1.13;1.03;;;5.10;99.90;;;;;;5051804;28;20540;-59
2023/12/09 03:19:40;;;;;;;0.73;0.73;;;5.10;99.90;;;;;;5051854;28;20238;-61
2023/12/09 03:22:06;;;;;;;0.30;0.30;;;5.00;99.90;;;;;;5051701;28;20170;-59
2023/12/09 03:24:31;;;;;;;1.00;1.00;;;5.00;99.90;;;;;;5052013;28;20534;-59
2023/12/09 03:26:57;;;;;;;1.10;1.10;;;4.80;99.90;;;;;;5051892;28;20181;-59
2023/12/09 03:29:22;;;;;;;0.70;0.60;;;4.70;99.90;;;;;;5051545;28;20198;-59
2023/12/09 03:31:48;;;;;;;0.70;0.70;;;4.80;99.90;;;;;;5051233;28;20181;-59
2023/12/09 03:34:14;;;;;;;1.00;1.00;;;4.90;99.90;;;;;;5051771;28;20535;-59
2023/12/09 03:36:40;;;;;;;0.75;0.73;;;4.80;99.90;;;;;;5051706;28;20175;-59
2023/12/09 03:39:06;;;;;;;0.40;0.40;;;4.70;99.90;;;;;;5051753;28;20665;-59
2023/12/09 03:41:32;;;;;;;1.25;1.25;;;4.70;99.90;;;;;;5051366;28;20617;-59
2023/12/09 03:43:58;;;;;;;1.45;0.95;;;4.70;99.90;;;;;;5051518;28;20559;-59
2023/12/09 03:46:24;;;;;;;0.40;0.40;;;4.80;99.90;;;;;;5050084;28;20185;-60
2023/12/09 03:48:49;;;;;;;0.80;0.80;;;4.70;99.90;;;;;;5051308;28;20249;-59
2023/12/09 03:51:15;;;;;;;0.40;0.40;;;4.70;99.90;;;;;;5051130;28;20194;-60
2023/12/09 03:53:42;;;;;;;0.60;0.60;;;4.70;99.90;;;;;;5051318;28;20164;-59
2023/12/09 03:56:08;;;;;;;2.88;0.73;;;4.80;99.90;;;;;;5051336;28;20234;-59
2023/12/09 03:58:36;;;;;;;1.00;1.00;;;4.90;99.90;;;;;;5051284;28;20198;-59
2023/12/09 04:01:02;;;;;;;0.75;0.75;;;5.00;99.90;;;;;;5050760;28;20173;-59
2023/12/09 04:03:27;;;;;;;1.00;1.00;;;5.00;99.90;;;;;;5051357;28;20213;-59
2023/12/09 04:05:54;;;;;;;0.40;0.40;;;5.00;99.90;;;;;;5051419;28;20660;-59
2023/12/09 04:08:20;;;;;;;0.40;0.40;;;5.00;99.90;;;;;;5051428;28;20227;-59
2023/12/09 04:10:46;;;;;;;0.77;0.77;;;5.00;99.90;;;;;;5050915;28;20785;-59
2023/12/09 04:13:12;;;;;;;1.67;1.13;;;5.00;99.90;;;;;;5051126;28;20241;-59
2023/12/09 04:15:40;;;;;;;0.80;0.80;;;5.10;99.90;;;;;;5051173;28;20788;-59
2023/12/09 04:18:06;;;;;;;0.40;0.40;;;5.10;99.90;;;;;;5051149;28;20190;-59
2023/12/09 04:20:32;;;;;;;0.40;0.40;;;5.10;99.90;;;;;;5050784;28;20174;-60
2023/12/09 04:22:58;;;;;;;0.75;0.75;;;5.10;99.90;;;;;;5051146;28;20178;-59
2023/12/09 04:25:24;;;;;;;0.57;0.57;;;5.00;99.90;;;;;;5050979;28;20270;-59
2023/12/09 04:27:54;;;;;;;0.80;0.80;;;4.80;99.90;;;;;;5050428;28;20657;-59
2023/12/09 04:30:21;;;;;;;0.40;0.40;;;4.80;99.90;;;;;;5050479;28;20211;-59
2023/12/09 04:32:47;;;;;;;0.45;0.45;;;4.90;99.90;;;;;;5051258;28;20560;-59
2023/12/09 04:35:13;;;;;;;2.97;0.97;;;5.00;99.90;;;;;;5051042;28;20180;-59
2023/12/09 04:37:38;;;;;;;1.03;0.87;;;5.00;99.90;;;;;;5050999;28;20171;-59
2023/12/09 04:40:05;;;;;;;0.50;0.50;;;5.00;99.90;;;;;;5050591;28;20618;-59
2023/12/09 04:42:31;;;;;;;0.40;0.40;;;5.00;99.90;;;;;;5051276;28;20186;-59
2023/12/09 04:44:56;;;;;;;1.13;0.90;;;5.00;99.90;;;;;;5050964;28;20278;-59
2023/12/09 04:47:22;;;;;;;0.53;0.53;;;5.10;99.90;;;;;;5050886;28;20415;-60
2023/12/09 04:49:48;;;;;;;2.57;0.50;;;5.10;99.90;;;;;;5050713;28;20687;-60
2023/12/09 04:52:14;;;;;;;0.55;0.55;;;5.10;99.90;;;;;;5050581;28;20172;-59
2023/12/09 04:54:39;;;;;;;0.40;0.40;;;5.10;99.90;;;;;;5050874;28;20257;-60
2023/12/09 04:57:05;;;;;;;0.40;0.40;;;5.10;99.90;;;;;;5051485;28;20170;-59
2023/12/09 04:59:31;;;;;;;1.73;1.63;;;5.10;99.90;;;;;;5054443;28;20196;-59
2023/12/09 05:01:56;;;;;;;0.40;0.40;;;5.10;99.90;;;;;;5054194;28;20560;-60
2023/12/09 05:04:22;;;;;;;4.43;0.87;;;5.20;99.90;;;;;;5054391;28;20175;-59
2023/12/09 05:06:48;;;;;;;0.40;0.40;;;5.20;99.90;;;;;;5054305;28;20616;-59
2023/12/09 05:09:14;;;;;;;0.40;0.40;;;5.20;99.90;;;;;;5054222;28;20186;-59
2023/12/09 05:11:40;;;;;;;1.50;0.77;;;5.20;99.90;;;;;;5054267;28;20410;-59
2023/12/09 05:14:06;;;;;;;0.40;0.40;;;5.30;99.90;;;;;;5054367;28;20436;-59
2023/12/09 05:16:32;;;;;;;0.40;0.40;;;5.30;99.90;;;;;;5054176;28;20679;-59
2023/12/09 05:18:58;;;;;;;0.50;0.50;;;5.30;99.90;;;;;;5054034;28;20421;-59
2023/12/09 05:21:24;;;;;;;0.30;0.30;;;5.30;99.90;;;;;;5053915;28;20183;-60
2023/12/09 05:23:49;;;;;;;0.40;0.40;;;5.30;99.90;;;;;;5054065;28;20580;-59
2023/12/09 05:26:25;;;;;;;0.97;0.93;;;5.20;99.90;;;;;;5053829;28;20167;-60
2023/12/09 05:28:52;;;;;;;0.50;0.50;;;5.20;99.90;;;;;;5054027;28;20198;-59
2023/12/09 05:31:19;;;;;;;0.40;0.40;;;5.20;99.90;;;;;;5053466;28;20209;-59
2023/12/09 05:33:45;;;;;;;0.57;0.57;;;5.20;99.90;;;;;;5053902;28;20172;-59
2023/12/09 05:36:10;;;;;;;0.60;0.60;;;5.10;99.90;;;;;;5053824;28;20257;-59
2023/12/09 05:38:37;;;;;;;0.50;0.50;;;5.20;99.90;;;;;;5053539;28;20572;-60
2023/12/09 05:41:04;;;;;;;0.40;0.40;;;5.20;99.90;;;;;;5053627;28;20352;-59
2023/12/09 05:43:29;;;;;;;1.10;1.02;;;5.20;99.90;;;;;;5053693;28;20212;-59
2023/12/09 05:45:55;;;;;;;0.57;0.57;;;5.20;99.90;;;;;;5053656;28;20721;-59
2023/12/09 05:48:20;;;;;;;0.40;0.40;;;5.10;99.90;;;;;;5053602;28;20196;-59
2023/12/09 05:50:46;;;;;;;0.37;0.37;;;5.00;99.90;;;;;;5053142;28;20227;-60
2023/12/09 05:53:12;;;;;;;0.30;0.30;;;5.10;99.90;;;;;;5053460;28;20178;-59
2023/12/09 05:55:38;;;;;;;0.37;0.37;;;5.20;99.90;;;;;;5053541;28;20496;-59
2023/12/09 05:58:03;;;;;;;0.40;0.40;;;5.20;99.90;;;;;;5053387;28;20721;-59
2023/12/09 06:00:30;;;;;;;0.93;0.93;;;5.20;99.90;;;;;;5053173;28;20659;-60
2023/12/09 06:02:55;;;;;;;0.50;0.50;;;5.20;99.90;;;;;;5053368;28;20179;-60
2023/12/09 06:05:21;;;;;;;2.30;2.20;;;5.20;99.90;;;;;;5053301;28;20244;-59
2023/12/09 06:07:46;;;;;;;1.23;1.23;;;5.20;99.90;;;;;;5053036;28;20175;-59
2023/12/09 06:10:12;;;;;;;0.53;0.53;;;5.20;99.90;;;;;;5052672;28;20194;-59
2023/12/09 06:12:38;;;;;;;0.60;0.60;;;5.30;99.90;;;;;;5053139;28;20170;-59
2023/12/09 06:15:05;;;;;;;0.43;0.43;;;5.30;99.90;;;;;;5053118;28;20228;-59
2023/12/09 06:17:31;;;;;;;0.50;0.50;;;5.30;99.90;;;;;;5053061;28;20170;-59
2023/12/09 06:19:56;;;;;;;0.60;0.60;;;5.30;99.90;;;;;;5052739;28;20249;-59
2023/12/09 06:22:22;;;;;;;0.77;0.77;;;5.20;99.90;;;;;;5052714;28;20176;-60
2023/12/09 06:24:48;;;;;;;0.40;0.40;;;5.30;99.90;;;;;;5052820;28;20235;-59
2023/12/09 06:27:13;;;;;;;1.17;0.63;;;5.40;99.90;;;;;;5052869;28;20415;-59
2023/12/09 06:29:39;;;;;;;1.07;1.07;;;5.30;99.90;;;;;;5052702;28;20224;-59
2023/12/09 06:32:05;;;;;;;2.20;2.10;;;5.30;99.90;;;;;;5052633;28;20173;-59
2023/12/09 06:34:31;;;;;;;1.25;1.23;;;5.20;99.90;;;;;;5052750;28;20168;-59
2023/12/09 06:36:56;;;;;;;0.40;0.40;;;5.30;99.90;;;;;;5052630;28;20648;-60
2023/12/09 06:39:22;;;;;;;0.70;0.70;;;5.30;99.90;;;;;;5052495;28;20657;-60
2023/12/09 06:41:48;;;;;;;1.90;0.60;;;5.40;99.90;;;;;;5052272;28;20162;-59
2023/12/09 06:44:14;;;;;;;0.35;0.35;;;5.40;99.90;;;;;;5052645;28;20177;-59
2023/12/09 06:46:40;;;;;;;0.70;0.70;;;5.40;99.90;;;;;;5052517;28;20174;-59
2023/12/09 06:49:06;;;;;;;1.07;0.97;;;5.30;99.90;;;;;;5052225;28;20205;-59
2023/12/09 06:51:32;;;;;;;1.25;1.17;;;5.20;99.90;;;;;;5051958;28;20497;-59
2023/12/09 06:54:00;;;;;;;0.60;0.60;;;5.30;99.90;;;;;;5052279;28;20189;-60
2023/12/09 06:56:25;;;;;;;0.93;0.93;;;5.30;99.90;;;;;;5052079;28;20196;-60
2023/12/09 06:58:52;;;;;;;0.50;0.50;;;5.30;99.90;;;;;;5052321;28;20204;-62
2023/12/09 07:01:29;;;;;;;0.40;0.40;;;5.20;99.90;;;;;;5051888;28;20542;-61
2023/12/09 07:03:55;;;;;;;0.47;0.47;;;5.30;99.90;;;;;;5051975;28;20174;-61
2023/12/09 07:06:25;;;;;;;0.95;0.90;;;5.30;99.90;;;;;;5052179;28;20315;-61
2023/12/09 07:08:52;;;;;;;0.40;0.40;;;5.40;99.90;;;;;;5051937;28;20277;-61
2023/12/09 07:11:19;;;;;;;0.77;0.55;;;5.40;99.90;;;;;;5050638;28;20209;-61
2023/12/09 07:13:44;;;;;;;0.50;0.50;;;5.40;99.90;;;;;;5051966;28;20243;-61
2023/12/09 07:16:12;;;;;;;0.40;0.40;;;5.40;99.90;;;;;;5051929;28;20836;-61
2023/12/09 07:18:40;;;;;;;0.60;0.60;;;5.30;99.90;;;;;;5051758;28;20194;-60
2023/12/09 07:21:06;;;;;;;0.45;0.45;;;5.30;99.90;;;;;;5051197;28;20174;-61
2023/12/09 07:23:31;;;;;;;1.27;1.17;;;5.40;99.90;;;;;;5051796;28;20252;-61
2023/12/09 07:25:57;;;;;;;0.40;0.40;;;5.30;99.90;;;;;;5051827;28;20402;-60
2023/12/09 07:28:23;;;;;;;0.80;0.70;;;5.20;99.90;;;;;;5051758;28;20279;-60
2023/12/09 07:30:48;;;;;;;0.40;0.40;;;5.20;99.90;;;;;;5051462;28;20750;-61
2023/12/09 07:33:14;;;;;;;0.37;0.37;;;5.30;99.90;;;;;;5051604;28;20986;-61
2023/12/09 07:35:40;;;;;;;0.40;0.40;;;5.30;99.90;;;;;;5051845;28;20257;-61
2023/12/09 07:38:06;;;;;;;0.30;0.30;;;5.20;99.90;;;;;;5051588;28;20189;-61
2023/12/09 07:40:32;;;;;;;0.40;0.40;;;5.30;99.90;;;;;;5051376;28;20499;-61
2023/12/09 07:42:57;;;;;;;0.40;0.40;;;5.30;99.90;;;;;;5051604;28;20257;-59
2023/12/09 07:45:23;;;;;;;0.50;0.50;;;5.40;99.90;;;;;;5051572;28;20257;-59
2023/12/09 07:47:48;;;;;;;0.30;0.30;;;5.40;99.90;;;;;;5051277;28;20608;-59
2023/12/09 07:50:14;;;;;;;1.20;1.13;;;5.40;99.90;;;;;;5051055;28;20214;-59
2023/12/09 07:52:40;;;;;;;0.47;0.47;;;5.50;99.90;;;;;;5051449;28;20167;-59
2023/12/09 07:55:09;;;;;;;0.30;0.30;;;5.50;99.90;;;;;;5051429;28;20170;-60
2023/12/09 07:57:34;;;;;;;0.40;0.40;;;5.50;99.90;;;;;;5051435;28;20560;-59
2023/12/09 08:00:00;;;;;;;0.30;0.30;;;5.50;99.90;;;;;;5051163;28;20194;-60
2023/12/09 08:02:27;;;;;;;0.60;0.60;;;5.50;99.90;;;;;;5039565;28;20185;-60
2023/12/09 08:04:53;;;;;;;1.75;1.25;;;5.50;99.90;;;;;;5047685;28;20170;-58
2023/12/09 08:07:18;;;;;;;0.70;0.70;;;5.50;99.90;;;;;;5042664;28;20734;-58
2023/12/09 08:09:44;;;;;;;0.40;0.40;;;5.60;99.90;;;;;;5049512;28;20200;-58
2023/12/09 08:12:10;;;;;;;1.07;1.07;;;5.70;99.90;;;;;;5050036;28;20654;-58
2023/12/09 08:14:35;;;;;;;0.73;0.70;;;5.70;99.90;;;;;;5050668;28;20497;-58
2023/12/09 08:17:01;;;;;;;0.40;0.40;;;5.70;99.90;;;;;;5036919;28;20728;-58
2023/12/09 08:19:27;;;;;;;1.33;0.83;;;5.70;99.90;;;;;;5047191;28;20185;-58
2023/12/09 08:21:52;;;;;;;0.43;0.43;;;5.80;99.90;;;;;;5030854;28;20166;-58
2023/12/09 08:24:18;;;;;;;0.53;0.53;;;5.80;99.90;;;;;;5039733;28;20224;-58
2023/12/09 08:26:46;;;;;;;0.97;0.97;;;5.90;99.90;;;;;;5051044;28;20429;-58
2023/12/09 08:29:14;;;;;;;0.40;0.40;;;5.80;99.90;;;;;;5039112;28;20565;-57
2023/12/09 08:31:40;;;;;;;0.50;0.50;;;5.80;99.90;;;;;;5030681;28;20216;-58
2023/12/09 08:34:06;;;;;;;1.27;0.70;;;5.90;99.90;;;;;;5034322;28;20608;-49
2023/12/09 08:36:31;;;;;;;0.40;0.40;;;5.90;99.90;;;;;;5035193;28;20258;-50
2023/12/09 08:38:58;;;;;;;1.33;1.23;;;6.30;99.90;;;;;;5035017;28;20581;-59
2023/12/09 08:41:24;;;;;;;0.50;0.50;;;7.00;99.90;;;;;;5034507;28;20197;-60
2023/12/09 08:43:52;;;;;;;0.60;0.60;;;7.40;99.90;;;;;;5035659;28;20181;-58
2023/12/09 08:46:18;;;;;;;0.40;0.40;;;7.40;99.10;;;;;;5043989;28;20174;-59
2023/12/09 08:48:44;;;;;;;0.40;0.40;;;7.40;98.80;;;;;;5043006;28;20240;-59
2023/12/09 08:51:10;;;;;;;0.30;0.30;;;7.10;98.40;;;;;;5043062;28;20496;-59
2023/12/09 08:53:37;;;;;;;0.40;0.30;;;7.00;98.70;;;;;;5044227;28;20193;-59
2023/12/09 08:56:03;;;;;;;0.60;0.60;;;6.90;98.70;;;;;;5045078;28;20309;-59
2023/12/09 08:58:29;;;;;;;0.40;0.40;;;6.70;98.80;;;;;;5043080;28;20663;-59
2023/12/09 09:00:54;;;;;;;0.77;0.50;;;6.60;99.00;;;;;;5043922;28;20188;-59
2023/12/09 09:03:20;;;;;;;0.83;0.83;;;6.40;99.20;;;;;;5044555;28;20171;-59
2023/12/09 09:05:46;;;;;;;0.40;0.40;;;6.50;99.50;;;;;;5042795;28;20175;-59
2023/12/09 09:08:11;;;;;;;0.50;0.50;;;6.50;99.60;;;;;;5044386;28;20246;-59
2023/12/09 09:10:37;;;;;;;0.40;0.40;;;6.50;99.50;;;;;;5041510;28;20189;-58
2023/12/09 09:13:03;;;;;;;1.23;0.70;;;6.50;99.60;;;;;;5044120;28;20643;-58
2023/12/09 09:15:28;;;;;;;0.30;0.30;;;6.50;99.40;;;;;;5045025;28;20611;-59
2023/12/09 09:17:54;;;;;;;0.40;0.40;;;6.50;99.40;;;;;;5042624;28;20167;-58
2023/12/09 09:20:20;;;;;;;0.70;0.70;;;6.50;99.60;;;;;;5044008;28;20178;-58
2023/12/09 09:22:46;;;;;;;1.10;1.10;;;6.60;99.80;;;;;;5043742;28;20174;-58
2023/12/09 09:25:12;;;;;;;1.63;0.82;;;6.70;99.60;;;;;;5042559;28;20232;-59
2023/12/09 09:27:38;;;;;;;1.55;1.23;;;6.90;99.10;;;;;;5042499;28;20213;-58
2023/12/09 09:30:05;;;;;;;0.40;0.40;;;6.90;99.10;;;;;;5043068;28;20229;-58
2023/12/09 09:32:31;;;;;;;0.60;0.60;;;7.00;99.20;;;;;;5044198;28;20193;-58
2023/12/09 09:34:57;;;;;;;0.80;0.75;;;7.00;99.40;;;;;;5042187;28;20554;-58
2023/12/09 09:37:23;;;;;;;0.50;0.50;;;7.10;99.40;;;;;;5043575;28;20182;-58
2023/12/09 09:39:48;;;;;;;0.90;0.90;;;7.00;99.30;;;;;;5043707;28;20191;-58
2023/12/09 09:42:25;;;;;;;1.27;0.90;;;7.00;99.10;;;;;;5042429;28;20803;-58
2023/12/09 09:45:05;;;;;;;1.50;1.40;;;7.10;99.30;;;;;;5042151;28;20178;-58
2023/12/09 09:47:36;;;;;;;1.48;1.40;;;7.20;99.20;;;;;;5050720;28;20678;-58
2023/12/09 09:50:04;;;;;;;1.65;1.02;;;7.20;99.30;;;;;;5053097;28;20217;-59
2023/12/09 09:52:31;;;;;;;1.15;0.95;;;7.30;99.30;;;;;;5053376;28;20174;-58
2023/12/09 09:54:58;;;;;;;3.33;1.83;;;7.30;99.20;;;;;;5053376;28;20304;-58
2023/12/09 09:57:24;;;;;;;1.50;0.80;;;7.40;99.20;;;;;;5053344;28;20170;-58
2023/12/09 09:59:49;;;;;;;1.73;1.60;;;7.40;99.00;;;;;;5053244;28;20268;-58
2023/12/09 10:02:19;;;;;;;0.60;0.50;;;7.30;98.90;;;;;;5052979;28;20495;-58
2023/12/09 10:04:45;;;;;;;1.55;1.45;;;7.30;98.80;;;;;;5053212;28;20189;-58
2023/12/09 10:07:12;;;;;;;1.07;1.07;;;7.10;98.70;;;;;;5053274;28;20174;-58
2023/12/09 10:09:38;;;;;;;1.95;1.85;;;7.10;98.90;;;;;;5052968;28;20196;-58
2023/12/09 10:12:04;;;;;;;0.80;0.80;;;7.00;98.70;;;;;;5052770;28;20226;-58
2023/12/09 10:14:30;;;;;;;0.98;0.75;;;6.90;98.90;;;;;;5053036;28;20216;-58
2023/12/09 10:16:57;;;;;;;1.10;1.10;;;6.80;98.90;;;;;;5052982;28;20231;-58
2023/12/09 10:19:22;;;;;;;0.80;0.80;;;6.70;99.20;;;;;;5052987;28;20212;-58
2023/12/09 10:21:48;;;;;;;2.93;2.73;;;6.70;99.30;;;;;;5052606;28;20253;-58
2023/12/09 10:24:13;;;;;;;2.53;2.33;;;6.60;99.20;;;;;;5052969;28;20205;-58
2023/12/09 10:26:39;;;;;;;2.37;2.27;;;6.60;99.30;;;;;;5053072;28;20174;-58
2023/12/09 10:29:06;;;;;;;1.80;1.70;;;6.50;99.30;;;;;;5053019;28;20201;-58
2023/12/09 10:31:35;;;;;;;5.15;2.70;;;6.50;99.40;;;;;;5052392;28;20459;-58
2023/12/09 10:34:02;;;;;;;0.85;0.85;;;6.50;99.30;;;;;;5052867;28;20177;-58
2023/12/09 10:36:29;;;;;;;0.98;0.98;;;6.40;99.30;;;;;;5052681;28;20174;-58
2023/12/09 10:38:56;;;;;;;1.52;1.15;;;6.30;99.50;;;;;;5052537;28;20202;-58
2023/12/09 10:41:23;;;;;;;3.38;1.60;;;6.30;99.80;;;;;;5052275;28;20216;-58
2023/12/09 10:43:48;;;;;;;3.80;1.67;;;6.30;99.90;;;;;;5052446;28;20235;-58
2023/12/09 10:46:14;;;;;;;0.60;0.60;;;6.40;99.90;;;;;;5052819;28;20173;-58
2023/12/09 10:48:43;;;;;;;0.50;0.50;;;6.30;99.90;;;;;;5052261;28;20204;-58
2023/12/09 10:51:09;;;;;;;0.90;0.90;;;6.20;99.90;;;;;;5052049;28;20201;-58
2023/12/09 10:53:35;;;;;;;2.20;1.83;;;6.10;99.90;;;;;;5052350;28;20773;-58
2023/12/09 10:56:01;;;;;;;3.35;1.15;;;5.90;99.90;;;;;;5051582;28;20169;-58
2023/12/09 10:58:27;;;;;;;4.85;1.98;;;6.10;99.90;;;;;;5052081;28;20686;-58
2023/12/09 11:00:56;;;;;;;1.57;1.17;;;6.30;99.90;;;;;;5051809;28;20180;-58
2023/12/09 11:03:27;;;;;;;0.75;0.70;;;6.40;99.90;;;;;;5052213;28;20176;-58
2023/12/09 11:05:57;;;;;;;2.17;1.88;;;6.60;99.90;;;;;;5052071;28;20212;-58
2023/12/09 11:08:27;;;;;;;2.00;1.90;;;6.90;99.90;;;;;;5052040;28;20572;-58
2023/12/09 11:10:55;;;;;;;2.60;2.40;;;7.00;99.90;;;;;;5051643;28;20590;-58
2023/12/09 11:13:24;;;;;;;1.52;1.42;;;7.30;99.90;;;;;;5051973;28;20166;-58
2023/12/09 11:16:09;;;;;;;1.77;0.63;;;7.60;99.90;;;;;;5051905;28;20351;-58
2023/12/09 11:18:35;;;;;;;1.55;1.42;;;7.90;98.60;;;;;;5051777;28;20197;-58
2023/12/09 11:21:02;;;;;;;1.80;1.70;;;8.00;98.10;;;;;;5051549;28;20178;-58
2023/12/09 11:23:28;;;;;;;1.25;1.25;;;8.10;98.00;;;;;;5051755;28;20726;-58
2023/12/09 11:25:54;;;;;;;3.60;1.30;;;8.10;97.80;;;;;;5051739;28;20174;-58
2023/12/09 11:28:20;;;;;;;3.47;1.50;;;8.20;97.80;;;;;;5051679;28;20489;-58
2023/12/09 11:30:46;;;;;;;1.77;1.67;;;8.30;97.90;;;;;;5051200;28;20208;-58
2023/12/09 11:33:11;;;;;;;4.90;1.70;;;8.30;98.00;;;;;;5051593;28;20170;-58
2023/12/09 11:35:37;;;;;;;1.57;1.47;;;8.30;97.70;;;;;;5051625;28;20662;-58
2023/12/09 11:38:08;;;;;;;1.17;1.00;;;8.20;97.60;;;;;;5051539;28;20510;-58
2023/12/09 11:40:34;;;;;;;2.30;1.73;;;8.20;97.70;;;;;;5051260;28;20409;-58
2023/12/09 11:43:03;;;;;;;4.37;1.80;;;8.30;97.90;;;;;;5051577;28;20258;-58
2023/12/09 11:45:29;;;;;;;3.03;1.48;;;8.40;98.10;;;;;;5051711;28;20415;-58
2023/12/09 11:47:55;;;;;;;3.60;1.53;;;8.50;97.60;;;;;;5050123;28;20261;-58
2023/12/09 11:50:21;;;;;;;0.98;0.88;;;8.60;97.50;;;;;;5050985;28;20236;-58
2023/12/09 11:52:47;;;;;;;2.28;2.08;;;8.80;97.50;;;;;;5051695;28;20670;-58
2023/12/09 11:55:17;;;;;;;1.63;1.50;;;8.60;97.00;;;;;;5051341;28;20170;-58
2023/12/09 11:57:43;;;;;;;3.53;1.85;;;8.70;97.30;;;;;;5049948;28;20179;-58
2023/12/09 12:00:13;;;;;;;1.35;1.25;;;8.60;96.90;;;;;;5051279;28;20216;-58
2023/12/09 12:02:39;;;;;;;2.88;2.58;;;8.50;96.90;;;;;;5051210;28;20170;-58
2023/12/09 12:05:07;;;;;;;1.30;1.20;;;8.40;97.10;;;;;;5051266;28;20174;-58
2023/12/09 12:07:33;;;;;;;6.18;2.03;;;8.10;97.20;;;;;;5054983;28;20189;-58
2023/12/09 12:09:58;;;;;;;4.90;4.40;;;7.80;97.70;;;;;;5055094;28;20240;-58
2023/12/09 12:12:24;;;;;;;2.93;1.70;;;7.50;98.10;;;;;;5055185;28;20162;-58
2023/12/09 12:14:50;;;;;;;2.07;1.90;;;7.30;98.60;;;;;;5055336;28;20166;-57
2023/12/09 12:17:17;;;;;;;1.27;1.17;;;7.20;99.00;;;;;;5055118;28;20178;-58
2023/12/09 12:19:44;;;;;;;2.90;2.10;;;7.00;99.40;;;;;;5055116;28;20212;-57
2023/12/09 12:22:09;;;;;;;1.83;1.73;;;7.00;99.60;;;;;;5055012;28;20170;-58
2023/12/09 12:24:42;;;;;;;2.67;2.47;;;7.00;99.70;;;;;;5054993;28;20185;-58
2023/12/09 12:27:08;;;;;;;3.17;1.95;;;7.10;99.70;;;;;;5055123;28;20240;-58
2023/12/09 12:29:34;;;;;;;2.60;2.27;;;7.10;99.70;;;;;;5048549;28;20233;-58
2023/12/09 12:31:59;;;;;;;3.70;3.40;;;7.10;99.50;;;;;;5043380;28;20678;-59
2023/12/09 12:34:26;;;;;;;3.07;2.43;;;7.00;99.20;;;;;;5045206;28;20201;-58
2023/12/09 12:36:52;;;;;;;3.58;3.20;;;6.90;99.40;;;;;;5044202;28;20414;-58
2023/12/09 12:39:17;;;;;;;1.60;1.27;;;6.90;99.70;;;;;;5043865;28;20193;-58
2023/12/09 12:41:44;;;;;;;1.90;1.70;;;7.00;99.90;;;;;;5045072;28;20595;-58
2023/12/09 12:44:11;;;;;;;0.65;0.65;;;7.10;99.90;;;;;;5043430;28;20812;-58
2023/12/09 12:46:37;;;;;;;3.90;2.28;;;7.10;99.70;;;;;;5049134;28;20180;-58
2023/12/09 12:49:05;;;;;;;1.57;1.47;;;7.20;99.50;;;;;;5045138;28;20208;-58
2023/12/09 12:51:31;;;;;;;4.47;2.45;;;7.20;99.20;;;;;;5043672;28;20558;-58
2023/12/09 12:53:57;;;;;;;3.23;1.20;;;7.10;99.20;;;;;;5043630;28;20269;-58